Chicago Midway International Airport
KMDW : rendu visible

Aérodrome :











RETROUVEZ-NOUS SUR...

 
LOGIN :

S'inscrire | Disclaimer

   EN    FR    IT 

 









Légende :    VFR   VFR Marginal   IFR   IFR Intensif   IFR Très Intensif
Visi : 
Plafond : 
>= 8 km
>= 3000ft
5 à 8 km
1000 à 3000 ft
1500m à 5 km
500 à 1000 ft
800 à 1500m
200 à 500 ft
< 800m
< 200 ft
Symboles :   Orages  Brouillard  Fortes neiges  Fortes précipitations  Vent > 20 kt






- Altitude de l'aérodrome : 620 ft
- Code IATA : MDW


KMDW - Chicago Midway International

DERNIER METAR :
  • 162253Z 10007KT 10SM FEW150 SCT200 BKN250 03/M02 A3028 RMK AO2 SLP264 VIRGA SW-W T00281022

METARs EXPIRÉS :
  • 162153Z 10009KT 10SM FEW200 SCT250 04/M02 A3029 RMK AO2 SLP265 T00391022
  • 162053Z 09008KT 10SM FEW200 BKN250 05/M02 A3030 RMK AO2 SLP271 T00501022 56024

TAF KMDW
Valide du 17 à 00h jusqu'au 18 à 06h UTC


162326Z 1700/1806 11008KT P6SM FEW150 SCT250
FM170500 16007KT P6SM BKN150
FM171400 18008KT P6SM FEW050 OVC100
FM171700 19007KT P6SM VCSH SCT050 OVC080
FM172000 20006KT 6SM -RA BR BKN025 OVC040
FM180300 21005KT 6SM -DZ BR BKN015 OVC030



MET'MAP, la Météo Aéronautique d'un coup d'oeil ! - Copyright ORBIFLY Décembre 2007 - Disclaimer

ORBIFLY MET'MAP TEAM :

Programmation & Développement : Alexandra Zaïnal
Conception & Développement : Baudouin d'Aumeries
Co-Programmation & Développement : Marc-Olivier Méhu
Soutien technique & logistique : Manuel Goepfert

Contact : metmap@orbifly.com




SOURCES & CREDITS :

   NOAA       Earth
Advisory